Time;durP1;ratioP1;P1;durP2;ratioP2;P2;SDS_P1;SDS_P2;PMS_P1;PMS_P2;Temp;Humidity;BMP_temperature;BMP_pressure;BME280_temperature;BME280_humidity;BME280_pressure;Samples;Min_cycle;Max_cycle;Signal;HPM_P1;HPM_P2
2023/07/31 00:02:03;;;;;;;5.25;2.20;;;17.80;98.70;;;;;;5113097;28;20075;-72
2023/07/31 00:04:29;;;;;;;3.70;1.65;;;17.80;98.70;;;;;;5113624;28;20071;-71
2023/07/31 00:06:54;;;;;;;4.03;2.15;;;17.80;98.60;;;;;;5112332;28;20047;-71
2023/07/31 00:09:20;;;;;;;3.78;1.70;;;17.80;98.70;;;;;;5113342;28;20044;-71
2023/07/31 00:11:46;;;;;;;3.90;1.98;;;17.70;98.70;;;;;;5113348;28;20035;-71
2023/07/31 00:14:11;;;;;;;6.55;2.10;;;17.80;98.70;;;;;;5112207;28;20122;-72
2023/07/31 00:16:37;;;;;;;4.07;1.77;;;17.70;98.70;;;;;;5112018;28;20040;-71
2023/07/31 00:19:02;;;;;;;4.80;2.00;;;17.70;98.60;;;;;;5112896;28;20047;-71
2023/07/31 00:21:28;;;;;;;5.32;2.20;;;17.70;98.80;;;;;;5113518;28;20040;-71
2023/07/31 00:23:53;;;;;;;4.63;2.10;;;17.70;99.00;;;;;;5112338;28;20546;-71
2023/07/31 00:26:19;;;;;;;3.17;1.73;;;17.70;99.30;;;;;;5112368;28;20081;-71
2023/07/31 00:28:45;;;;;;;4.93;2.20;;;17.70;99.00;;;;;;5112594;28;20047;-71
2023/07/31 00:31:10;;;;;;;5.82;1.90;;;17.70;99.10;;;;;;5113015;28;20482;-71
2023/07/31 00:33:36;;;;;;;5.47;2.20;;;17.70;99.00;;;;;;5113293;28;20502;-72
2023/07/31 00:36:02;;;;;;;4.47;1.77;;;17.60;99.00;;;;;;5113563;28;20056;-72
2023/07/31 00:38:28;;;;;;;6.45;2.45;;;17.60;98.90;;;;;;5113318;28;20669;-71
2023/07/31 00:40:56;;;;;;;4.60;2.13;;;17.60;99.20;;;;;;5113020;28;20044;-71
2023/07/31 00:43:22;;;;;;;5.05;2.10;;;17.60;99.00;;;;;;5111908;28;20492;-71
2023/07/31 00:45:48;;;;;;;3.63;1.80;;;17.60;99.20;;;;;;5111877;28;20071;-72
2023/07/31 00:48:13;;;;;;;3.17;1.70;;;17.60;99.20;;;;;;5103377;28;20079;-72
2023/07/31 00:50:39;;;;;;;3.78;1.98;;;17.60;99.30;;;;;;5113302;28;20040;-72
2023/07/31 00:53:08;;;;;;;5.25;1.73;;;17.60;99.30;;;;;;5113057;28;20044;-71
2023/07/31 00:55:34;;;;;;;4.60;2.17;;;17.50;99.30;;;;;;5105739;28;20056;-72
2023/07/31 00:57:59;;;;;;;4.07;1.67;;;17.50;99.40;;;;;;5113123;28;20163;-72
2023/07/31 01:00:25;;;;;;;4.00;1.52;;;17.50;99.40;;;;;;5110268;28;20050;-72
2023/07/31 01:02:51;;;;;;;3.50;1.70;;;17.50;99.20;;;;;;5113002;28;20035;-73
2023/07/31 01:05:23;;;;;;;4.32;1.80;;;17.50;99.20;;;;;;5112769;28;20050;-72
2023/07/31 01:07:56;;;;;;;4.32;1.60;;;17.40;99.30;;;;;;5112766;28;20051;-72
2023/07/31 01:10:26;;;;;;;3.97;1.60;;;17.40;99.50;;;;;;5112933;28;20513;-72
2023/07/31 01:12:54;;;;;;;4.68;1.50;;;17.40;99.40;;;;;;5112950;28;20514;-72
2023/07/31 01:15:21;;;;;;;4.43;1.38;;;17.40;99.70;;;;;;5110028;28;20052;-72
2023/07/31 01:17:49;;;;;;;3.42;1.27;;;17.40;99.60;;;;;;5113149;28;20176;-72
2023/07/31 01:20:21;;;;;;;3.20;1.27;;;17.40;99.50;;;;;;5112692;28;20405;-72
2023/07/31 01:22:52;;;;;;;2.83;1.23;;;17.30;99.50;;;;;;5112678;28;20055;-72
2023/07/31 01:25:50;;;;;;;2.67;1.02;;;17.40;99.50;;;;;;5110912;28;20052;-72
2023/07/31 01:28:21;;;;;;;3.63;1.00;;;17.30;99.60;;;;;;5092424;28;20047;-72
2023/07/31 01:30:48;;;;;;;2.42;1.10;;;17.30;99.70;;;;;;5107172;28;20058;-72
2023/07/31 01:33:16;;;;;;;2.13;1.10;;;17.30;99.70;;;;;;5111653;28;20531;-72
2023/07/31 01:35:45;;;;;;;2.85;1.05;;;17.30;99.70;;;;;;5112015;28;20103;-72
2023/07/31 01:38:11;;;;;;;2.95;1.13;;;17.30;99.60;;;;;;5114083;28;20128;-72
2023/07/31 01:40:37;;;;;;;2.70;1.00;;;17.30;99.80;;;;;;5116533;28;20083;-72
2023/07/31 01:43:02;;;;;;;1.95;0.90;;;17.30;99.80;;;;;;5116495;28;20522;-73
2023/07/31 01:45:28;;;;;;;2.75;0.88;;;17.30;99.70;;;;;;5115098;28;20397;-72
2023/07/31 01:47:53;;;;;;;2.05;0.70;;;17.30;99.70;;;;;;5115622;28;20044;-72
2023/07/31 01:50:19;;;;;;;1.90;1.00;;;17.20;99.70;;;;;;5115405;28;20126;-72
2023/07/31 01:52:45;;;;;;;2.03;0.88;;;17.30;99.60;;;;;;5114940;28;20036;-73
2023/07/31 01:55:10;;;;;;;2.45;0.80;;;17.20;99.50;;;;;;5112874;28;20039;-73
2023/07/31 01:57:37;;;;;;;2.78;1.10;;;17.20;99.50;;;;;;5111616;28;20046;-73
2023/07/31 02:00:03;;;;;;;3.00;1.00;;;17.20;99.50;;;;;;5112740;28;20066;-73
2023/07/31 02:02:29;;;;;;;1.55;0.80;;;17.20;99.40;;;;;;5103409;28;20044;-73
2023/07/31 02:04:54;;;;;;;1.90;0.80;;;17.20;99.40;;;;;;5095625;28;20494;-73
2023/07/31 02:07:20;;;;;;;1.33;0.63;;;17.20;99.40;;;;;;5100723;28;20081;-73
2023/07/31 02:09:47;;;;;;;1.42;0.70;;;17.20;99.30;;;;;;5095607;28;20079;-73
2023/07/31 02:12:14;;;;;;;2.15;0.70;;;17.20;99.30;;;;;;5096521;28;20055;-72
2023/07/31 02:14:40;;;;;;;1.40;0.70;;;17.20;99.40;;;;;;5096093;28;20371;-73
2023/07/31 02:17:06;;;;;;;2.00;0.80;;;17.20;99.40;;;;;;5114531;28;20477;-73
2023/07/31 02:19:31;;;;;;;1.52;0.63;;;17.20;99.30;;;;;;5096337;28;20097;-72
2023/07/31 02:21:57;;;;;;;1.52;0.80;;;17.20;99.50;;;;;;5095165;28;20051;-72
2023/07/31 02:24:24;;;;;;;1.83;0.65;;;17.20;99.40;;;;;;5094314;28;20051;-73
2023/07/31 02:26:49;;;;;;;1.83;0.70;;;17.20;99.30;;;;;;5096219;28;20051;-72
2023/07/31 02:29:15;;;;;;;0.82;0.50;;;17.20;99.20;;;;;;5101669;28;20048;-73
2023/07/31 02:31:41;;;;;;;1.40;0.70;;;17.20;99.30;;;;;;5096453;28;20470;-73
2023/07/31 02:34:06;;;;;;;1.48;0.57;;;17.20;99.30;;;;;;5101122;28;20044;-73
2023/07/31 02:36:32;;;;;;;1.42;0.70;;;17.20;99.10;;;;;;5095230;28;20500;-73
2023/07/31 02:38:57;;;;;;;1.30;0.60;;;17.20;99.10;;;;;;5095049;28;20083;-73
2023/07/31 02:41:23;;;;;;;1.65;0.60;;;17.20;99.10;;;;;;5097366;28;20521;-73
2023/07/31 02:43:49;;;;;;;1.90;0.70;;;17.20;99.00;;;;;;5103737;28;20039;-73
2023/07/31 02:46:14;;;;;;;1.88;0.70;;;17.20;99.00;;;;;;5114349;28;20443;-73
2023/07/31 02:48:40;;;;;;;1.42;0.70;;;17.20;98.80;;;;;;5114339;28;20043;-74
2023/07/31 02:51:05;;;;;;;1.83;0.60;;;17.20;98.80;;;;;;5113722;28;20074;-73
2023/07/31 02:53:31;;;;;;;2.03;0.60;;;17.20;98.80;;;;;;5115183;28;20040;-73
2023/07/31 02:55:56;;;;;;;1.55;0.60;;;17.20;98.80;;;;;;5114216;28;20130;-73
2023/07/31 02:58:22;;;;;;;2.28;0.57;;;17.20;98.70;;;;;;5115265;28;20043;-73
2023/07/31 03:00:48;;;;;;;1.10;0.50;;;17.20;98.70;;;;;;5114509;28;20092;-73
2023/07/31 03:03:13;;;;;;;2.22;0.50;;;17.20;98.90;;;;;;5114710;28;20089;-73
2023/07/31 03:05:39;;;;;;;1.30;0.40;;;17.20;98.90;;;;;;5115029;28;20039;-73
2023/07/31 03:08:04;;;;;;;0.85;0.50;;;17.20;98.60;;;;;;5114634;28;20107;-73
2023/07/31 03:10:30;;;;;;;0.75;0.50;;;17.20;98.60;;;;;;5114569;28;20565;-73
2023/07/31 03:12:56;;;;;;;1.73;0.40;;;17.10;98.40;;;;;;5114174;28;20040;-73
2023/07/31 03:15:21;;;;;;;1.38;0.50;;;17.20;98.60;;;;;;5114213;28;20050;-73
2023/07/31 03:17:47;;;;;;;1.50;0.50;;;17.10;98.60;;;;;;5114291;28;20405;-73
2023/07/31 03:20:12;;;;;;;1.40;0.43;;;17.10;98.60;;;;;;5114326;28;20513;-73
2023/07/31 03:22:41;;;;;;;0.90;0.50;;;17.10;98.60;;;;;;5113825;28;20044;-73
2023/07/31 03:25:10;;;;;;;1.27;0.50;;;17.20;98.60;;;;;;5114563;28;20377;-72
2023/07/31 03:27:36;;;;;;;2.15;0.60;;;17.10;98.60;;;;;;5114017;28;20132;-73
2023/07/31 03:30:03;;;;;;;1.13;0.40;;;17.10;99.20;;;;;;5114298;28;20077;-72
2023/07/31 03:32:28;;;;;;;1.00;0.43;;;17.10;99.20;;;;;;5113539;28;20048;-73
2023/07/31 03:34:54;;;;;;;1.42;0.50;;;17.10;99.50;;;;;;5114051;28;20055;-73
2023/07/31 03:37:20;;;;;;;0.82;0.40;;;17.20;99.70;;;;;;5113223;28;20083;-72
2023/07/31 03:39:45;;;;;;;0.98;0.40;;;17.20;99.70;;;;;;5114009;28;20039;-73
2023/07/31 03:42:11;;;;;;;0.90;0.50;;;17.20;99.40;;;;;;5112872;28;20036;-72
2023/07/31 03:44:37;;;;;;;2.45;0.50;;;17.20;99.60;;;;;;5113981;28;20108;-73
2023/07/31 03:47:02;;;;;;;0.63;0.30;;;17.10;99.80;;;;;;5112778;28;20042;-72
2023/07/31 03:49:28;;;;;;;1.50;0.50;;;17.10;99.60;;;;;;5113185;28;20044;-73
2023/07/31 03:51:54;;;;;;;2.03;0.60;;;17.10;99.40;;;;;;5113517;28;20044;-72
2023/07/31 03:54:19;;;;;;;1.02;0.40;;;17.10;99.50;;;;;;5113978;28;20131;-72
2023/07/31 03:56:45;;;;;;;1.15;0.50;;;17.10;99.30;;;;;;5113350;28;20043;-72
2023/07/31 03:59:10;;;;;;;1.10;0.52;;;17.10;99.10;;;;;;5113730;28;20478;-72
2023/07/31 04:01:36;;;;;;;0.93;0.38;;;17.10;98.90;;;;;;5111867;28;20100;-72
2023/07/31 04:04:01;;;;;;;3.20;0.60;;;17.10;98.90;;;;;;5113180;28;20490;-73
2023/07/31 04:06:27;;;;;;;0.82;0.43;;;17.00;98.80;;;;;;5113146;28;20099;-73
2023/07/31 04:08:53;;;;;;;0.65;0.43;;;17.10;98.70;;;;;;5113102;28;20043;-72
2023/07/31 04:11:18;;;;;;;0.90;0.50;;;17.00;98.60;;;;;;5113316;28;20083;-72
2023/07/31 04:13:44;;;;;;;1.10;0.40;;;17.10;98.60;;;;;;5112104;28;20490;-72
2023/07/31 04:16:09;;;;;;;1.02;0.50;;;17.10;98.70;;;;;;5111738;28;20040;-72
2023/07/31 04:18:35;;;;;;;1.55;0.57;;;17.00;98.70;;;;;;5113403;28;20054;-72
2023/07/31 04:21:04;;;;;;;3.28;0.60;;;17.00;98.70;;;;;;5113313;28;20051;-72
2023/07/31 04:23:29;;;;;;;1.73;0.45;;;17.00;98.90;;;;;;5112914;28;20044;-72
2023/07/31 04:25:55;;;;;;;3.33;0.80;;;17.00;99.00;;;;;;5113545;28;20050;-73
2023/07/31 04:28:21;;;;;;;1.90;0.65;;;17.00;99.30;;;;;;5113074;28;20127;-73
2023/07/31 04:30:47;;;;;;;1.25;0.52;;;17.00;99.60;;;;;;5112982;28;20051;-73
2023/07/31 04:33:13;;;;;;;1.05;0.40;;;17.00;99.50;;;;;;5112801;28;20039;-73
2023/07/31 04:35:38;;;;;;;1.92;0.65;;;17.00;99.20;;;;;;5113221;28;20054;-73
2023/07/31 04:38:04;;;;;;;0.80;0.40;;;17.00;99.10;;;;;;5112824;28;20058;-73
2023/07/31 04:40:30;;;;;;;1.88;0.50;;;17.00;98.90;;;;;;5113323;28;20143;-73
2023/07/31 04:42:55;;;;;;;2.50;0.70;;;17.00;98.80;;;;;;5112523;28;20071;-73
2023/07/31 04:45:21;;;;;;;1.33;0.55;;;17.00;99.20;;;;;;5111906;28;20044;-73
2023/07/31 04:47:46;;;;;;;1.42;0.57;;;17.00;99.20;;;;;;5112790;28;20039;-73
2023/07/31 04:50:12;;;;;;;2.85;1.00;;;17.00;99.50;;;;;;5113357;28;20082;-73
2023/07/31 04:52:37;;;;;;;1.08;0.47;;;17.00;99.90;;;;;;5112643;28;20467;-73
2023/07/31 04:55:03;;;;;;;2.28;0.93;;;17.00;99.90;;;;;;5113095;28;20092;-74
2023/07/31 04:57:29;;;;;;;2.05;0.90;;;17.00;99.90;;;;;;5112419;28;20053;-74
2023/07/31 04:59:54;;;;;;;3.78;1.23;;;17.00;99.90;;;;;;5111445;28;20039;-73
2023/07/31 05:02:20;;;;;;;3.47;1.20;;;17.00;99.90;;;;;;5111200;28;20086;-72
2023/07/31 05:04:46;;;;;;;3.80;1.27;;;17.00;99.90;;;;;;5113245;28;20048;-72
2023/07/31 05:07:11;;;;;;;5.18;1.90;;;17.10;99.90;;;;;;5112496;28;20493;-72
2023/07/31 05:09:39;;;;;;;5.70;1.90;;;17.00;99.90;;;;;;5113002;28;20063;-72
2023/07/31 05:12:05;;;;;;;6.80;2.25;;;17.00;99.90;;;;;;5112982;28;20048;-72
2023/07/31 05:14:31;;;;;;;8.88;2.75;;;17.00;99.90;;;;;;5116275;28;20055;-72
2023/07/31 05:16:56;;;;;;;3.85;1.40;;;17.00;99.90;;;;;;5116087;28;20063;-73
2023/07/31 05:19:22;;;;;;;8.27;3.00;;;17.10;99.90;;;;;;5116696;28;20044;-72
2023/07/31 05:21:48;;;;;;;4.22;1.40;;;17.10;99.90;;;;;;5116538;28;20497;-73
2023/07/31 05:24:13;;;;;;;9.65;3.38;;;17.10;99.90;;;;;;5116430;28;20079;-72
2023/07/31 05:26:39;;;;;;;7.43;3.10;;;17.00;99.90;;;;;;5115482;28;20049;-72
2023/07/31 05:29:04;;;;;;;6.43;2.30;;;17.10;99.90;;;;;;5116362;28;20097;-73
2023/07/31 05:31:32;;;;;;;11.23;4.00;;;17.10;99.90;;;;;;5114953;28;20036;-72
2023/07/31 05:33:57;;;;;;;9.95;3.78;;;17.10;99.90;;;;;;5115084;28;20562;-72
2023/07/31 05:36:23;;;;;;;11.48;4.18;;;17.10;99.90;;;;;;5116255;28;20047;-73
2023/07/31 05:38:49;;;;;;;10.70;4.03;;;17.10;99.90;;;;;;5116349;28;20560;-72
2023/07/31 05:41:15;;;;;;;17.30;5.80;;;17.20;99.90;;;;;;5116444;28;20043;-72
2023/07/31 05:43:40;;;;;;;19.90;6.30;;;17.20;99.90;;;;;;5115889;28;20508;-72
2023/07/31 05:46:06;;;;;;;14.98;5.20;;;17.20;99.90;;;;;;5115576;28;20085;-72
2023/07/31 05:48:34;;;;;;;17.85;5.03;;;17.20;99.90;;;;;;5115730;28;20047;-72
2023/07/31 05:50:59;;;;;;;9.75;3.58;;;17.20;99.90;;;;;;5115808;28;20055;-72
2023/07/31 05:53:25;;;;;;;11.15;3.95;;;17.20;99.90;;;;;;5114821;28;20047;-72
2023/07/31 05:55:51;;;;;;;15.70;4.80;;;17.20;99.90;;;;;;5116214;28;20050;-72
2023/07/31 05:58:16;;;;;;;7.90;2.85;;;17.20;99.90;;;;;;5115067;28;20047;-72
2023/07/31 06:00:42;;;;;;;9.48;3.88;;;17.20;99.90;;;;;;5115831;28;20039;-72
2023/07/31 06:03:07;;;;;;;17.38;5.28;;;17.30;99.90;;;;;;5115776;28;20087;-72
2023/07/31 06:05:33;;;;;;;18.45;5.78;;;17.20;99.90;;;;;;5114970;28;20074;-72
2023/07/31 06:07:59;;;;;;;13.77;5.20;;;17.20;99.90;;;;;;5114940;28;20116;-75
2023/07/31 06:10:25;;;;;;;15.75;5.53;;;17.20;99.90;;;;;;5114243;28;20134;-74
2023/07/31 06:12:50;;;;;;;19.92;6.18;;;17.30;99.90;;;;;;5115791;28;20043;-72
2023/07/31 06:15:17;;;;;;;19.60;6.60;;;17.30;99.90;;;;;;5114438;28;20044;-72
2023/07/31 06:17:43;;;;;;;14.88;4.82;;;17.30;99.90;;;;;;5112112;28;20100;-72
2023/07/31 06:20:09;;;;;;;16.70;5.57;;;17.30;99.90;;;;;;5101831;28;20036;-73
2023/07/31 06:22:35;;;;;;;18.35;5.93;;;17.30;99.90;;;;;;5114862;28;20047;-73
2023/07/31 06:25:01;;;;;;;14.88;5.07;;;17.30;99.90;;;;;;5114329;28;20035;-73
2023/07/31 06:27:26;;;;;;;14.75;4.95;;;17.40;99.90;;;;;;5114917;27;20474;-73
2023/07/31 06:29:52;;;;;;;13.80;4.75;;;17.40;99.90;;;;;;5114998;28;20048;-73
2023/07/31 06:32:18;;;;;;;11.27;4.13;;;17.40;99.90;;;;;;5115607;28;20047;-73
2023/07/31 06:34:43;;;;;;;14.63;5.82;;;17.40;99.90;;;;;;5115135;28;20051;-73
2023/07/31 06:37:09;;;;;;;12.23;4.57;;;17.40;99.90;;;;;;5114265;28;20052;-73
2023/07/31 06:39:35;;;;;;;14.85;5.65;;;17.40;99.90;;;;;;5115275;28;20051;-72
2023/07/31 06:42:00;;;;;;;12.95;4.72;;;17.40;99.90;;;;;;5115259;28;20046;-73
2023/07/31 06:44:26;;;;;;;19.88;6.22;;;17.40;99.90;;;;;;5115196;28;20041;-72
2023/07/31 06:46:51;;;;;;;16.85;5.97;;;17.40;99.90;;;;;;5114576;28;20040;-72
2023/07/31 06:49:17;;;;;;;14.57;5.18;;;17.40;99.90;;;;;;5114687;28;20093;-73
2023/07/31 06:51:44;;;;;;;13.02;4.47;;;17.50;99.90;;;;;;5114562;28;20065;-72
2023/07/31 06:54:09;;;;;;;15.77;5.85;;;17.50;99.90;;;;;;5114195;28;20039;-72
2023/07/31 06:56:35;;;;;;;15.95;5.35;;;17.50;99.90;;;;;;5114584;28;20507;-72
2023/07/31 06:59:01;;;;;;;16.17;5.60;;;17.50;99.90;;;;;;5114559;28;20046;-73
2023/07/31 07:01:27;;;;;;;15.82;5.22;;;17.50;99.90;;;;;;5114551;28;20561;-73
2023/07/31 07:03:53;;;;;;;13.57;5.18;;;17.50;99.90;;;;;;5113327;28;20478;-72
2023/07/31 07:06:19;;;;;;;15.98;5.65;;;17.50;99.90;;;;;;5112180;28;20048;-72
2023/07/31 07:08:44;;;;;;;14.30;5.20;;;17.50;99.90;;;;;;5113603;28;20043;-73
2023/07/31 07:11:10;;;;;;;11.57;4.80;;;17.50;99.90;;;;;;5112599;28;20039;-73
2023/07/31 07:13:36;;;;;;;13.07;4.28;;;17.50;99.90;;;;;;5113194;28;20505;-72
2023/07/31 07:16:01;;;;;;;13.80;4.50;;;17.50;99.90;;;;;;5114550;28;20104;-73
2023/07/31 07:18:27;;;;;;;10.80;4.38;;;17.50;99.90;;;;;;5113913;28;20059;-73
2023/07/31 07:20:54;;;;;;;8.77;3.53;;;17.50;99.90;;;;;;5112873;28;20445;-72
2023/07/31 07:23:20;;;;;;;9.88;3.80;;;17.50;99.90;;;;;;5113700;28;20058;-73
2023/07/31 07:25:47;;;;;;;8.73;3.65;;;17.50;99.90;;;;;;5111708;28;20036;-73
2023/07/31 07:28:13;;;;;;;8.77;2.95;;;17.50;99.90;;;;;;5113679;28;20046;-72
2023/07/31 07:30:40;;;;;;;7.63;3.30;;;17.50;99.90;;;;;;5111535;28;20043;-72
2023/07/31 07:33:05;;;;;;;9.63;3.50;;;17.50;99.90;;;;;;5112966;28;20044;-73
2023/07/31 07:35:35;;;;;;;6.03;3.05;;;17.50;99.90;;;;;;5108255;28;20066;-73
2023/07/31 07:38:03;;;;;;;8.20;3.20;;;17.50;99.90;;;;;;5102617;28;20464;-72
2023/07/31 07:40:28;;;;;;;7.93;2.90;;;17.50;99.90;;;;;;5104308;28;20051;-72
2023/07/31 07:42:54;;;;;;;6.00;2.67;;;17.50;99.90;;;;;;5111181;28;20549;-72
2023/07/31 07:45:20;;;;;;;5.85;2.80;;;17.50;99.90;;;;;;5113077;28;20047;-72
2023/07/31 07:47:45;;;;;;;6.90;2.53;;;17.50;99.90;;;;;;5105602;28;20150;-73
2023/07/31 07:50:11;;;;;;;7.05;2.80;;;17.50;99.90;;;;;;5104245;28;20705;-72
2023/07/31 07:52:37;;;;;;;5.63;2.53;;;17.50;99.90;;;;;;5105585;28;20120;-72
2023/07/31 07:55:03;;;;;;;6.95;2.75;;;17.50;99.90;;;;;;5111462;28;20078;-72
2023/07/31 07:57:29;;;;;;;8.18;2.70;;;17.50;99.90;;;;;;5111775;28;20042;-72
2023/07/31 07:59:57;;;;;;;6.20;2.72;;;17.50;99.90;;;;;;5112579;28;20044;-73
2023/07/31 08:02:25;;;;;;;7.28;2.90;;;17.60;99.90;;;;;;5112030;28;20094;-73
2023/07/31 08:04:51;;;;;;;5.65;2.33;;;17.50;99.90;;;;;;5103452;28;20036;-72
2023/07/31 08:07:17;;;;;;;5.50;2.42;;;17.50;99.90;;;;;;5110538;28;20047;-72
2023/07/31 08:09:45;;;;;;;5.55;2.00;;;17.50;99.90;;;;;;5111898;28;20055;-72
2023/07/31 08:12:11;;;;;;;5.53;2.40;;;17.50;99.90;;;;;;5112520;28;20038;-72
2023/07/31 08:14:36;;;;;;;4.53;1.90;;;17.50;99.90;;;;;;5111276;28;20036;-72
2023/07/31 08:17:05;;;;;;;5.75;2.10;;;17.60;99.90;;;;;;5112472;28;20423;-72
2023/07/31 08:19:31;;;;;;;5.55;2.08;;;17.50;99.90;;;;;;5102223;28;20039;-72
2023/07/31 08:21:56;;;;;;;6.07;1.80;;;17.60;99.90;;;;;;5109767;28;20044;-72
2023/07/31 08:24:22;;;;;;;4.72;1.83;;;17.60;99.90;;;;;;5111486;28;20051;-72
2023/07/31 08:26:48;;;;;;;4.25;1.60;;;17.60;99.90;;;;;;5108679;28;20059;-72
2023/07/31 08:29:14;;;;;;;3.53;1.50;;;17.60;99.90;;;;;;5106773;27;20135;-72
2023/07/31 08:31:39;;;;;;;4.70;1.48;;;17.60;99.90;;;;;;5109706;28;20055;-72
2023/07/31 08:34:05;;;;;;;3.92;1.60;;;17.60;99.90;;;;;;5111914;28;20480;-72
2023/07/31 08:36:30;;;;;;;3.88;1.40;;;17.60;99.90;;;;;;5099504;28;20123;-72
2023/07/31 08:38:56;;;;;;;4.57;1.60;;;17.70;99.90;;;;;;5110826;28;20036;-72
2023/07/31 08:41:21;;;;;;;4.38;1.65;;;17.70;99.90;;;;;;5111873;28;20050;-72
2023/07/31 08:43:49;;;;;;;3.60;1.40;;;17.70;99.90;;;;;;5105903;28;20118;-72
2023/07/31 08:46:15;;;;;;;5.05;1.45;;;17.70;99.90;;;;;;5111537;28;20075;-72
2023/07/31 08:48:45;;;;;;;3.28;1.52;;;17.80;99.90;;;;;;5115771;28;20067;-72
2023/07/31 08:51:11;;;;;;;4.20;1.30;;;17.80;99.90;;;;;;5114510;28;20047;-72
2023/07/31 08:53:36;;;;;;;3.22;1.30;;;17.80;99.90;;;;;;5117637;28;20098;-72
2023/07/31 08:56:03;;;;;;;2.67;1.20;;;17.80;99.90;;;;;;5117631;28;20493;-72
2023/07/31 08:58:32;;;;;;;2.83;1.20;;;17.80;99.90;;;;;;5117535;28;20043;-71
2023/07/31 09:01:00;;;;;;;3.38;1.20;;;17.90;99.90;;;;;;5117336;28;20425;-72
2023/07/31 09:03:26;;;;;;;3.28;1.20;;;17.90;99.90;;;;;;5115982;28;20078;-72
2023/07/31 09:05:53;;;;;;;2.38;1.02;;;17.90;99.90;;;;;;5115376;28;20078;-72
2023/07/31 09:08:21;;;;;;;3.10;1.00;;;18.00;99.90;;;;;;5113278;28;20485;-71
2023/07/31 09:10:47;;;;;;;2.83;1.08;;;18.00;99.90;;;;;;5116437;28;20490;-71
2023/07/31 09:13:16;;;;;;;1.50;0.85;;;18.00;99.90;;;;;;5117148;28;20036;-71
2023/07/31 09:15:46;;;;;;;2.67;1.00;;;18.10;99.90;;;;;;5114813;28;20400;-72
2023/07/31 09:18:12;;;;;;;1.77;0.85;;;18.10;99.90;;;;;;5116290;28;20040;-71
2023/07/31 09:20:38;;;;;;;1.88;0.93;;;18.20;99.90;;;;;;5116222;28;20051;-72
2023/07/31 09:23:12;;;;;;;2.53;0.90;;;18.20;99.90;;;;;;5115010;28;20118;-72
2023/07/31 09:25:39;;;;;;;3.05;0.95;;;18.20;99.90;;;;;;5107295;28;20370;-73
2023/07/31 09:28:09;;;;;;;1.80;0.80;;;18.20;99.90;;;;;;5116134;28;20039;-71
2023/07/31 09:30:47;;;;;;;1.98;0.63;;;18.20;99.90;;;;;;5115962;28;20079;-72
2023/07/31 09:33:13;;;;;;;2.80;0.90;;;18.20;99.90;;;;;;5113677;28;20032;-72
2023/07/31 09:35:45;;;;;;;3.55;0.70;;;18.20;99.90;;;;;;5113551;28;20044;-72
2023/07/31 09:38:12;;;;;;;4.07;1.00;;;18.20;99.90;;;;;;5113175;28;20549;-72
2023/07/31 09:40:41;;;;;;;3.28;0.80;;;18.30;99.90;;;;;;5106839;28;20052;-72
2023/07/31 09:43:10;;;;;;;8.05;1.45;;;18.30;99.90;;;;;;5112536;28;20035;-72
2023/07/31 09:45:43;;;;;;;2.80;0.63;;;18.30;99.90;;;;;;5115487;28;20039;-72
2023/07/31 09:48:11;;;;;;;2.60;0.82;;;18.30;99.90;;;;;;5116514;28;20062;-72
2023/07/31 09:50:41;;;;;;;3.60;0.70;;;18.30;99.90;;;;;;5115907;28;20043;-72
2023/07/31 09:53:08;;;;;;;1.45;0.63;;;18.30;99.90;;;;;;5116282;28;20043;-72
2023/07/31 09:55:34;;;;;;;3.63;0.70;;;18.40;99.90;;;;;;5115604;28;20462;-72
2023/07/31 09:58:06;;;;;;;2.50;0.70;;;18.40;99.90;;;;;;5114942;28;20048;-72
2023/07/31 10:00:33;;;;;;;0.68;0.45;;;18.40;99.90;;;;;;5116071;28;20481;-72
2023/07/31 10:03:02;;;;;;;2.05;0.82;;;18.40;99.90;;;;;;5116480;28;20127;-71
2023/07/31 10:05:34;;;;;;;2.35;0.50;;;18.40;99.90;;;;;;5108465;28;20059;-72
2023/07/31 10:08:00;;;;;;;0.60;0.50;;;18.50;99.90;;;;;;5095861;28;20056;-72
2023/07/31 10:10:27;;;;;;;1.40;0.60;;;18.50;99.90;;;;;;5100589;28;20082;-71
2023/07/31 10:12:53;;;;;;;1.33;0.60;;;18.50;99.90;;;;;;5115406;28;20047;-71
2023/07/31 10:15:20;;;;;;;1.60;0.70;;;18.60;99.90;;;;;;5114204;28;20516;-72
2023/07/31 10:17:49;;;;;;;0.88;0.40;;;18.60;99.90;;;;;;5114853;28;20177;-72
2023/07/31 10:20:16;;;;;;;0.80;0.30;;;18.60;99.90;;;;;;5114957;28;20055;-72
2023/07/31 10:22:43;;;;;;;0.43;0.30;;;18.60;99.90;;;;;;5115630;28;20048;-72
2023/07/31 10:25:09;;;;;;;0.40;0.25;;;18.70;99.90;;;;;;5114686;28;20054;-71
2023/07/31 10:27:39;;;;;;;1.02;0.30;;;18.70;99.90;;;;;;5114481;28;20043;-71
2023/07/31 10:30:08;;;;;;;0.73;0.40;;;18.80;99.90;;;;;;5114277;28;20114;-71
2023/07/31 10:32:34;;;;;;;1.02;0.30;;;18.90;99.90;;;;;;5099432;28;20047;-72
2023/07/31 10:35:03;;;;;;;0.40;0.30;;;19.00;99.90;;;;;;5115083;28;20120;-71
2023/07/31 10:37:42;;;;;;;1.05;0.30;;;19.00;99.90;;;;;;5113623;28;20400;-71
2023/07/31 10:40:20;;;;;;;0.68;0.20;;;19.10;99.90;;;;;;5114354;28;20036;-71
2023/07/31 10:42:48;;;;;;;0.65;0.22;;;19.10;99.90;;;;;;5114693;28;20051;-71
2023/07/31 10:45:27;;;;;;;0.70;0.30;;;19.20;99.90;;;;;;5114200;28;20039;-71
2023/07/31 10:48:03;;;;;;;3.35;0.30;;;19.30;99.90;;;;;;5114110;28;20455;-72
2023/07/31 10:50:32;;;;;;;0.63;0.30;;;19.30;99.90;;;;;;5114754;28;20055;-71
2023/07/31 10:52:58;;;;;;;0.95;0.40;;;19.40;99.90;;;;;;5114011;28;20075;-72
2023/07/31 10:55:37;;;;;;;2.83;0.30;;;19.40;99.90;;;;;;5115354;28;20047;-72
2023/07/31 10:58:08;;;;;;;2.08;0.55;;;19.40;99.90;;;;;;5114410;28;20040;-72
2023/07/31 11:00:37;;;;;;;0.98;0.50;;;19.50;99.90;;;;;;5114053;28;20516;-71
2023/07/31 11:03:03;;;;;;;2.75;0.60;;;19.50;99.90;;;;;;5114232;27;20550;-72
2023/07/31 11:05:53;;;;;;;2.13;0.70;;;19.50;99.90;;;;;;5114313;28;20051;-72
2023/07/31 11:08:22;;;;;;;3.63;0.70;;;19.50;99.90;;;;;;5113417;28;20083;-71
2023/07/31 11:11:04;;;;;;;2.05;0.60;;;19.60;99.90;;;;;;5095056;28;20046;-71
2023/07/31 11:13:51;;;;;;;2.97;0.70;;;19.60;99.90;;;;;;5100378;28;20122;-72
2023/07/31 11:16:19;;;;;;;1.10;0.45;;;19.60;99.90;;;;;;5113798;28;20123;-72
2023/07/31 11:18:45;;;;;;;1.25;0.40;;;19.60;99.90;;;;;;5114684;28;20046;-72
2023/07/31 11:21:15;;;;;;;2.30;0.50;;;19.60;99.90;;;;;;5114364;28;20059;-72
2023/07/31 11:23:50;;;;;;;1.45;0.55;;;19.60;99.90;;;;;;5105968;28;20500;-72
2023/07/31 11:26:18;;;;;;;2.15;0.40;;;19.70;99.90;;;;;;5105911;28;20051;-72
2023/07/31 11:28:47;;;;;;;1.83;0.50;;;19.70;99.90;;;;;;5113307;28;20066;-72
2023/07/31 11:31:12;;;;;;;1.25;0.50;;;19.60;99.90;;;;;;5108966;28;20035;-72
2023/07/31 11:33:38;;;;;;;1.10;0.30;;;19.70;99.90;;;;;;5107271;28;20040;-72
2023/07/31 11:36:04;;;;;;;1.15;0.30;;;19.70;99.90;;;;;;5097433;28;20101;-72
2023/07/31 11:38:31;;;;;;;1.00;0.30;;;19.70;99.90;;;;;;5110576;28;20048;-73
2023/07/31 11:41:03;;;;;;;1.10;0.30;;;19.70;99.90;;;;;;5104060;27;20042;-72
2023/07/31 11:43:29;;;;;;;0.85;0.20;;;19.60;99.90;;;;;;5104462;28;20040;-72
2023/07/31 11:45:56;;;;;;;1.27;0.20;;;19.70;99.90;;;;;;5101502;28;20042;-72
2023/07/31 11:48:30;;;;;;;1.00;0.40;;;19.60;99.90;;;;;;5096247;28;20057;-73
2023/07/31 11:51:03;;;;;;;1.38;0.70;;;19.60;99.90;;;;;;5107213;28;20047;-73
2023/07/31 11:53:47;;;;;;;;;;;19.60;99.90;;;;;;5104830;28;20646;-72
2023/07/31 11:56:16;;;;;;;2.30;1.30;;;19.50;99.90;;;;;;5109723;28;19965;-72
2023/07/31 11:58:45;;;;;;;2.92;1.35;;;19.40;99.90;;;;;;5110975;28;20108;-72
2023/07/31 12:01:11;;;;;;;1.85;1.05;;;19.50;99.90;;;;;;5108607;28;20036;-73
2023/07/31 12:03:37;;;;;;;1.88;0.80;;;19.50;99.90;;;;;;5108568;28;20160;-73
2023/07/31 12:06:03;;;;;;;1.00;0.60;;;19.50;99.90;;;;;;5101952;28;20379;-72
2023/07/31 12:08:29;;;;;;;1.42;0.45;;;19.50;99.90;;;;;;5106216;28;20059;-72
2023/07/31 12:11:05;;;;;;;2.42;0.50;;;19.60;99.90;;;;;;5111876;28;20054;-73
2023/07/31 12:13:33;;;;;;;1.23;0.40;;;19.50;99.90;;;;;;5097634;28;20075;-73
2023/07/31 12:16:00;;;;;;;1.88;0.40;;;19.50;99.90;;;;;;5106795;28;20056;-73
2023/07/31 12:18:27;;;;;;;1.98;0.45;;;19.50;99.90;;;;;;5093738;28;20066;-72
2023/07/31 12:20:57;;;;;;;1.33;0.40;;;19.50;99.90;;;;;;5103979;28;20127;-72
2023/07/31 12:23:28;;;;;;;0.73;0.40;;;19.60;99.90;;;;;;5108676;28;20401;-72
2023/07/31 12:26:11;;;;;;;2.17;0.63;;;19.60;99.90;;;;;;5104462;28;20056;-72
2023/07/31 12:28:44;;;;;;;2.53;0.73;;;19.50;99.90;;;;;;5108770;28;20126;-72
2023/07/31 12:31:12;;;;;;;3.58;1.02;;;19.50;99.90;;;;;;5103495;28;20119;-72
2023/07/31 12:33:39;;;;;;;3.63;1.27;;;19.50;99.90;;;;;;5093228;28;20051;-73
2023/07/31 12:36:09;;;;;;;5.05;1.50;;;19.50;99.90;;;;;;5112334;28;20104;-73
2023/07/31 12:38:34;;;;;;;4.57;1.60;;;19.50;99.90;;;;;;5102764;28;20048;-72
2023/07/31 12:41:00;;;;;;;3.88;1.40;;;19.50;99.90;;;;;;5111321;28;20100;-72
2023/07/31 12:43:26;;;;;;;3.85;1.77;;;19.50;99.90;;;;;;5113154;28;20047;-72
2023/07/31 12:45:53;;;;;;;4.22;1.10;;;19.50;99.90;;;;;;5112931;28;20044;-72